Terminal Aerodrome Forecast
Issued by NWS Aberdeen, SD

Home | Current Version | Previous Version | Text Only | Print | Product List | Glossary On
Versions: 1 2 3 4 5 6 7 8 9 10 11 12 13 14 15 16 17 18 19 20 21 22 23 24 25 26 27 28 29 30 31 32 33 34 35 36 37 38 39 40 41 42 43 44 45 46 47
000
FTAK31 PAFA 230536
TAFABR
TAF
PABR 230536Z 2306/2406 09012KT 3/4SM -SN BR OVC007
     FM230900 09010KT 1/2SM -SN FZFG OVC003
     FM231500 09008KT 1 1/2SM -SN BR OVC007
     FM231800 07008KT 6SM -SN BR BKN007 OVC015=

USA.gov is the U.S. government's official web portal to all federal, state and local government web resources and services.